Flight Track Log - Related Links

Times and Time Zones

All times are in EDT time to prevent confusion due to time zone crossing. See the N331SK flight status page for this flight to view local times or setup timezone preferences in your user account.

Time Position Orientation Groundspeed Altitude Reporting Facility
EDT Latitude Longitude Course Direction KTS MPH feet Rate Location/Type
Fri 05:01:51 PM 41.7881 -86.0928 292° West 224 258 4,800  Level Chicago Center
Fri 05:02:53 PM 41.8756 -86.0969 358° North 261 300 7,900 1,645 Climbing Chicago Center
Fri 05:03:55 PM 41.9531 -86.1006 358° North 275 316 8,200 864 Climbing Chicago Center
Fri 05:04:58 PM 42.0306 -86.0992 North 277 319 9,700 1,104 Climbing Chicago Center
Fri 05:06:00 PM 42.1136 -86.1058 357° North 296 341 10,500 1,065 Climbing Chicago Center
Fri 05:07:00 PM 41.9083 -86.7417 285° West  Level FlightAware Approximate
Fri 05:07:02 PM 42.1886 -86.1658 329° Northwest 356 410 11,900  Level Chicago Center
Fri 05:08:00 PM 41.9339 -86.8687 292° West  Level FlightAware Approximate
Fri 05:08:04 PM 42.1908 -86.2986 271° West 361 415 13,700  Level Chicago Center
Fri 05:09:06 PM 42.1953 -86.4594 272° West 361 415 16,000 2,226 Climbing Chicago Center
Fri 05:10:08 PM 42.1981 -86.5950 272° West 363 418 18,300 2,032 Climbing Chicago Center
Fri 05:11:10 PM 42.2022 -86.7264 272° West 363 418 20,200 1,839 Climbing Chicago Center
Fri 05:12:12 PM 42.2061 -86.8617 272° West 364 419 22,100 2,081 Climbing Chicago Center
Fri 05:13:14 PM 42.2094 -87.0239 272° West 363 418 24,500 1,694 Climbing Chicago Center
Fri 05:14:16 PM 42.2092 -87.1572 270° West 360 414 25,600 1,113 Climbing Chicago Center
Fri 05:15:18 PM 42.2128 -87.3072 272° West 398 458 26,800 1,056 Climbing Chicago Center
Fri 05:16:21 PM 42.2142 -87.4544 271° West 398 458 27,800 1,008 Climbing Chicago Center
Fri 05:17:23 PM 42.2169 -87.6081 271° West 410 472 28,900 1,210 Climbing Chicago Center
Fri 05:18:25 PM 42.2192 -87.7939 271° West 417 480 30,300 1,403 Climbing Chicago Center
Fri 05:19:27 PM 42.2211 -87.9469 271° West 415 478 31,800 1,355 Climbing Chicago Center
Fri 05:20:29 PM 42.2483 -88.0903 284° West 399 459 33,100 1,500 Climbing Chicago Center
Fri 05:21:31 PM 42.2767 -88.2294 285° West 392 451 34,900 1,113 Climbing Chicago Center
Fri 05:22:33 PM 42.3047 -88.3644 286° West 381 438 35,400 532 Climbing Chicago Center
Fri 05:23:35 PM 42.3358 -88.5172 285° West 386 444 36,000 290 Climbing Chicago Center
Fri 05:24:37 PM 42.3686 -88.6847 285° West 393 452 36,000  Level Chicago Center
Fri 05:25:39 PM 42.3983 -88.8331 285° West 404 465 36,000  Level Chicago Center
Fri 05:26:41 PM 42.4269 -88.9806 285° West 404 465 36,000  Level Chicago Center
Fri 05:27:43 PM 42.4569 -89.1283 285° West 407 468 36,000  Level Chicago Center
Fri 05:28:45 PM 42.4853 -89.2764 285° West 406 467 36,000  Level Chicago Center
Fri 05:29:48 PM 42.5142 -89.4256 285° West 408 470 36,000  Level Chicago Center
Fri 05:30:50 PM 42.5478 -89.5981 285° West 406 467 36,000  Level Chicago Center
Fri 05:31:52 PM 42.5750 -89.7458 284° West 405 466 36,000  Level Chicago Center
Fri 05:32:54 PM 42.6025 -89.8928 284° West 403 464 36,000  Level Chicago Center
Fri 05:33:56 PM 42.6275 -90.0275 284° West 399 459 36,000 -339 Level Chicago Center
Fri 05:34:58 PM 42.6547 -90.1739 284° West 403 464 35,300 -919 Descending Chicago Center
Fri 05:36:00 PM 42.6881 -90.3561 284° West 418 481 34,100 -1,065 Descending Chicago Center
Fri 05:37:02 PM 42.7167 -90.5122 284° West 428 493 33,100 -968 Descending Chicago Center
Fri 05:38:04 PM 42.7456 -90.6708 284° West 435 501 32,100 -968 Descending Chicago Center
Fri 05:39:06 PM 42.7747 -90.8297 284° West 438 504 31,100 -1,403 Descending Chicago Center
Fri 05:40:08 PM 42.8092 -91.0239 284° West 446 513 29,200 -1,742 Descending Chicago Center
Fri 05:41:10 PM 42.8383 -91.1883 284° West 451 519 27,500 -1,597 Descending Chicago Center
Fri 05:42:12 PM 42.8667 -91.3558 283° West 460 529 25,900 -1,597 Descending Chicago Center
Fri 05:43:14 PM 42.8950 -91.5200 283° West 459 528 24,200 -1,790 Descending Chicago Center
Fri 05:44:16 PM 42.9267 -91.7117 283° West 447 514 22,200 -1,790 Descending Chicago Center
Fri 05:45:18 PM 42.9525 -91.8708 283° West 440 506 20,500 -1,860 Descending Chicago Center
Fri 05:46:25 PM 42.9828 -92.0578 283° West 431 496 18,200 -1,935 Descending Minneapolis Center
Fri 05:47:22 PM 43.0028 -92.1772 283° West 417 480 16,500 -2,017 Descending Chicago Center
Fri 05:48:24 PM 43.0306 -92.3561 282° West 408 470 14,200 -1,935 Descending Chicago Center
Fri 05:49:26 PM 43.0533 -92.5033 282° West 405 466 12,500 -1,392 Descending Chicago Center
Fri 05:50:29 PM 43.0753 -92.6433 282° West 394 453 11,300 -1,113 Descending Chicago Center
Fri 05:51:30 PM 43.0944 -92.7736 281° West 373 429 10,200 -1,313 Descending Chicago Center
Fri 05:52:37 PM 43.1183 -92.8883 286° West 277 319 8,500 -1,721 Descending Minneapolis Center
Fri 05:53:39 PM 43.1325 -92.9803 282° West 253 291 6,500 -1,500 Descending Minneapolis Center
Fri 05:54:41 PM 43.1472 -93.0736 282° West 253 291 5,400 -774 Descending Minneapolis Center
Fri 05:55:43 PM 43.1617 -93.1683 282° West 254 292 4,900 -532 Descending Minneapolis Center
Fri 05:56:45 PM 43.1800 -93.2822 282° West 257 296 4,300 -581 Descending Minneapolis Center
Fri 05:59:00 PM 43.1981 -93.4551 283° West  Level FlightAware Approximate
Fri 06:06:00 PM 43.2333 -93.6167 304° West  Level FlightAware Approximate

Login

Don't have an account? Register now (free) for customized features, flight alerts, and more!